createdAt,value
2023-03-15T00:00:26.580Z,4.47
2023-03-15T00:01:59.892Z,4.45
2023-03-15T00:03:37.677Z,4.35
2023-03-15T00:05:13.598Z,4.25
2023-03-15T00:06:46.772Z,4.17
2023-03-15T00:08:19.304Z,4.06
2023-03-15T00:09:52.919Z,3.98
2023-03-15T00:11:25.523Z,3.94
2023-03-15T00:12:58.580Z,3.97
2023-03-15T00:14:31.881Z,3.98
2023-03-15T00:16:05.729Z,4.00
2023-03-15T00:17:39.117Z,4.00
2023-03-15T00:19:13.141Z,4.01
2023-03-15T00:20:47.212Z,4.05
2023-03-15T00:22:23.484Z,4.13
2023-03-15T00:23:57.139Z,4.24
2023-03-15T00:25:30.432Z,4.29
2023-03-15T00:27:03.577Z,4.28
2023-03-15T00:28:37.120Z,4.29
2023-03-15T00:30:11.506Z,4.43
2023-03-15T00:31:44.668Z,4.39
2023-03-15T00:33:18.270Z,4.27
2023-03-15T00:34:54.884Z,4.16
2023-03-15T00:36:28.211Z,4.12
2023-03-15T00:38:01.883Z,4.09
2023-03-15T00:39:38.039Z,4.11
2023-03-15T00:41:16.861Z,4.13
2023-03-15T00:42:51.219Z,4.13
2023-03-15T00:44:24.951Z,4.10
2023-03-15T00:45:58.348Z,4.15
2023-03-15T00:47:31.782Z,4.19
2023-03-15T00:49:06.033Z,4.23
2023-03-15T00:50:40.547Z,4.21
2023-03-15T00:52:14.071Z,4.15
2023-03-15T00:53:48.581Z,4.09
2023-03-15T00:55:22.709Z,4.03
2023-03-15T00:56:55.929Z,3.99
2023-03-15T00:58:29.404Z,4.04
2023-03-15T01:00:08.900Z,4.05
2023-03-15T01:01:44.716Z,4.02
2023-03-15T01:03:18.002Z,3.96
2023-03-15T01:04:52.521Z,3.96
2023-03-15T01:06:28.561Z,4.03
2023-03-15T01:08:03.273Z,4.01
2023-03-15T01:09:36.158Z,3.97
2023-03-15T01:11:12.223Z,3.99
2023-03-15T01:12:46.117Z,3.79
2023-03-15T01:14:20.058Z,3.53
2023-03-15T01:15:53.393Z,3.49
2023-03-15T01:17:27.054Z,3.51
2023-03-15T01:19:00.565Z,3.48
2023-03-15T01:20:34.105Z,3.49
2023-03-15T01:22:08.671Z,3.50
2023-03-15T01:23:42.520Z,3.53
2023-03-15T01:25:15.751Z,3.50
2023-03-15T01:26:49.497Z,3.49
2023-03-15T01:28:22.831Z,3.47
2023-03-15T01:29:56.243Z,3.48
2023-03-15T01:31:49.305Z,3.44
2023-03-15T01:33:29.517Z,3.47
2023-03-15T01:35:02.776Z,3.52
2023-03-15T01:36:35.903Z,3.59
2023-03-15T01:38:10.856Z,3.66
2023-03-15T01:39:43.698Z,3.76
2023-03-15T01:41:18.061Z,3.81
2023-03-15T01:42:52.446Z,3.85
2023-03-15T01:44:25.955Z,3.88
2023-03-15T01:46:13.185Z,3.92
2023-03-15T01:47:49.110Z,3.94
2023-03-15T01:49:26.918Z,3.98
2023-03-15T01:51:03.411Z,4.01
2023-03-15T01:52:40.317Z,4.07
2023-03-15T01:54:19.755Z,4.10
2023-03-15T01:55:55.910Z,4.03
2023-03-15T01:57:44.631Z,3.91
2023-03-15T01:59:22.648Z,3.84
2023-03-15T02:00:55.039Z,3.88
2023-03-15T02:02:30.434Z,3.90
2023-03-15T02:04:10.764Z,3.92
2023-03-15T02:05:54.780Z,3.95
2023-03-15T02:07:51.190Z,3.95
2023-03-15T02:09:36.128Z,3.82
2023-03-15T02:11:09.457Z,3.95
2023-03-15T02:12:46.217Z,3.94
2023-03-15T02:14:19.970Z,3.91
2023-03-15T02:15:53.613Z,3.91
2023-03-15T02:17:45.300Z,3.88
2023-03-15T02:19:34.085Z,3.94
2023-03-15T02:21:15.922Z,4.00
2023-03-15T02:22:54.899Z,4.04
2023-03-15T02:24:38.602Z,4.08
2023-03-15T02:26:19.784Z,4.11
2023-03-15T02:27:55.320Z,4.10
2023-03-15T02:29:30.394Z,4.13
2023-03-15T02:31:03.668Z,4.13
2023-03-15T02:32:36.992Z,4.09
2023-03-15T02:34:09.448Z,4.01
2023-03-15T02:35:42.669Z,3.97
2023-03-15T02:37:16.011Z,3.87
2023-03-15T02:38:50.836Z,3.78
2023-03-15T02:40:27.920Z,3.78
2023-03-15T02:42:01.961Z,3.66
2023-03-15T02:43:37.934Z,3.57
2023-03-15T02:45:12.156Z,3.56
2023-03-15T02:46:49.168Z,3.61
2023-03-15T02:48:26.602Z,3.56
2023-03-15T02:50:00.002Z,3.60
2023-03-15T02:51:35.284Z,3.61
2023-03-15T02:53:08.590Z,3.59
2023-03-15T02:54:43.529Z,3.64
2023-03-15T02:56:18.113Z,3.49
2023-03-15T02:57:51.356Z,3.41
2023-03-15T02:59:25.972Z,3.37
2023-03-15T03:00:59.147Z,3.35
2023-03-15T03:02:31.540Z,3.37
2023-03-15T03:04:04.962Z,3.37
2023-03-15T03:05:38.307Z,3.39
2023-03-15T03:07:10.824Z,3.45
2023-03-15T03:08:52.079Z,3.47
2023-03-15T03:10:26.844Z,3.51
2023-03-15T03:12:03.364Z,3.42
2023-03-15T03:13:38.873Z,3.37
2023-03-15T03:15:14.297Z,3.34
2023-03-15T03:16:51.180Z,3.34
2023-03-15T03:18:24.997Z,3.33
2023-03-15T03:19:58.284Z,3.43
2023-03-15T03:21:38.919Z,3.55
2023-03-15T03:23:12.387Z,3.64
2023-03-15T03:24:46.201Z,3.70
2023-03-15T03:26:22.073Z,3.79
2023-03-15T03:27:57.519Z,3.81
2023-03-15T03:29:32.062Z,3.84
2023-03-15T03:31:18.170Z,3.82
2023-03-15T03:32:52.199Z,3.81
2023-03-15T03:34:27.156Z,3.84
2023-03-15T03:36:04.140Z,3.88
2023-03-15T03:37:38.433Z,3.87
2023-03-15T03:39:21.009Z,3.96
2023-03-15T03:40:54.210Z,3.97
2023-03-15T03:42:26.582Z,3.96
2023-03-15T03:44:00.030Z,3.99
2023-03-15T03:45:33.206Z,4.01
2023-03-15T03:47:08.168Z,4.01
2023-03-15T03:48:41.564Z,4.01
2023-03-15T03:50:14.891Z,3.99
2023-03-15T03:51:47.995Z,3.88
2023-03-15T03:53:21.341Z,3.76
2023-03-15T03:54:54.131Z,3.60
2023-03-15T03:56:27.464Z,3.44
2023-03-15T03:58:01.141Z,3.27
2023-03-15T04:00:07.940Z,3.11
2023-03-15T04:01:48.322Z,3.08
2023-03-15T04:03:27.519Z,3.08
2023-03-15T04:05:09.678Z,3.05
2023-03-15T04:06:45.986Z,3.04
2023-03-15T04:08:22.644Z,3.01
2023-03-15T04:09:56.575Z,3.05
2023-03-15T04:11:28.967Z,3.06
2023-03-15T04:13:06.234Z,3.08
2023-03-15T04:14:39.545Z,3.11
2023-03-15T04:16:15.668Z,3.14
2023-03-15T04:18:05.922Z,3.15
2023-03-15T04:19:47.176Z,3.13
2023-03-15T04:21:23.576Z,3.15
2023-03-15T04:23:01.371Z,3.16
2023-03-15T04:24:53.487Z,3.16
2023-03-15T04:26:46.907Z,3.03
2023-03-15T04:28:31.011Z,3.19
2023-03-15T04:30:14.437Z,3.25
2023-03-15T04:32:07.001Z,3.28
2023-03-15T04:33:55.422Z,3.35
2023-03-15T04:35:58.052Z,3.43
2023-03-15T04:37:49.898Z,3.48
2023-03-15T04:39:43.014Z,3.49
2023-03-15T04:41:36.053Z,3.52
2023-03-15T04:43:29.142Z,3.50
2023-03-15T04:45:34.987Z,3.47
2023-03-15T04:47:39.325Z,3.43
2023-03-15T04:49:35.321Z,3.40
2023-03-15T04:51:34.398Z,3.35
2023-03-15T04:53:38.892Z,3.35
2023-03-15T04:55:31.234Z,3.38
2023-03-15T04:57:42.886Z,3.38
2023-03-15T04:59:36.561Z,3.41
2023-03-15T05:01:30.070Z,3.43
2023-03-15T05:03:26.394Z,3.44
2023-03-15T05:05:24.056Z,3.47
2023-03-15T05:07:17.330Z,3.51
2023-03-15T05:09:19.676Z,3.53
2023-03-15T05:11:03.244Z,3.59
2023-03-15T05:12:59.034Z,3.70
2023-03-15T05:14:43.280Z,3.75
2023-03-15T05:16:35.332Z,3.83
2023-03-15T05:18:36.669Z,3.96
2023-03-15T05:20:19.074Z,4.05
2023-03-15T05:22:11.376Z,4.11
2023-03-15T05:24:12.563Z,4.17
2023-03-15T05:26:04.382Z,4.18
2023-03-15T05:27:57.278Z,4.22
2023-03-15T05:29:41.120Z,4.26
2023-03-15T05:31:29.421Z,4.31
2023-03-15T05:33:17.535Z,4.36
2023-03-15T05:35:16.902Z,4.36
2023-03-15T05:37:12.378Z,4.38
2023-03-15T05:39:23.238Z,4.38
2023-03-15T05:41:18.320Z,4.38
2023-03-15T05:42:50.557Z,4.35
2023-03-15T05:44:53.265Z,4.32
2023-03-15T05:46:51.864Z,4.34
2023-03-15T05:49:00.394Z,4.30
2023-03-15T05:50:42.987Z,4.31
2023-03-15T05:52:37.697Z,4.36
2023-03-15T05:54:32.555Z,4.42
2023-03-15T05:56:24.667Z,4.48
2023-03-15T05:58:16.096Z,4.54
2023-03-15T06:00:10.302Z,4.60
2023-03-15T06:01:49.643Z,4.71
2023-03-15T06:03:32.073Z,4.81
2023-03-15T06:05:15.093Z,4.92
2023-03-15T06:06:48.306Z,5.07
2023-03-15T06:08:21.765Z,5.18
2023-03-15T06:09:58.016Z,5.28
2023-03-15T06:11:32.063Z,5.36
2023-03-15T06:13:07.107Z,5.43
2023-03-15T06:14:40.958Z,5.52
2023-03-15T06:16:15.038Z,5.67
2023-03-15T06:17:51.760Z,5.77
2023-03-15T06:19:26.342Z,5.86
2023-03-15T06:21:01.616Z,5.97
2023-03-15T06:22:35.003Z,5.97
2023-03-15T06:24:15.384Z,6.04
2023-03-15T06:25:50.098Z,6.15
2023-03-15T06:27:24.618Z,6.11
2023-03-15T06:29:01.015Z,6.12
2023-03-15T06:30:34.232Z,6.26
2023-03-15T06:32:08.243Z,6.40
2023-03-15T06:33:44.196Z,6.50
2023-03-15T06:35:18.071Z,6.56
2023-03-15T06:36:52.642Z,6.63
2023-03-15T06:38:26.028Z,6.78
2023-03-15T06:39:59.688Z,6.85
2023-03-15T06:41:35.387Z,6.90
2023-03-15T06:43:19.515Z,7.08
2023-03-15T06:44:53.008Z,7.22
2023-03-15T06:46:27.421Z,7.45
2023-03-15T06:48:01.716Z,7.53
2023-03-15T06:49:35.512Z,7.60
2023-03-15T06:51:09.397Z,7.69
2023-03-15T06:52:43.064Z,7.82
2023-03-15T06:54:16.501Z,7.90
2023-03-15T06:55:52.313Z,7.79
2023-03-15T06:57:26.933Z,7.82
2023-03-15T06:58:59.273Z,7.82
2023-03-15T07:00:32.476Z,7.90
2023-03-15T07:02:05.798Z,7.99
2023-03-15T07:03:39.038Z,8.05
2023-03-15T07:05:12.688Z,8.04
2023-03-15T07:06:45.834Z,8.14
2023-03-15T07:08:19.040Z,8.19
2023-03-15T07:09:54.249Z,8.18
2023-03-15T07:11:28.702Z,8.18
2023-03-15T07:13:04.421Z,8.14
2023-03-15T07:14:37.736Z,8.01
2023-03-15T07:16:10.989Z,7.98
2023-03-15T07:17:44.619Z,8.08
2023-03-15T07:19:17.796Z,8.17
2023-03-15T07:20:57.249Z,8.14
2023-03-15T07:22:30.713Z,8.23
2023-03-15T07:24:04.731Z,8.23
2023-03-15T07:25:54.149Z,8.40
2023-03-15T07:27:28.041Z,8.55
2023-03-15T07:29:02.530Z,8.65
2023-03-15T07:30:36.025Z,8.78
2023-03-15T07:32:09.302Z,9.11
2023-03-15T07:33:42.772Z,9.57
2023-03-15T07:35:16.986Z,10.04
2023-03-15T07:36:50.487Z,10.37
2023-03-15T07:38:24.744Z,10.50
2023-03-15T07:39:58.646Z,10.51
2023-03-15T07:41:31.904Z,10.41
2023-03-15T07:43:14.055Z,10.49
2023-03-15T07:44:48.844Z,10.57
2023-03-15T07:46:22.098Z,10.65
2023-03-15T07:47:56.612Z,10.57
2023-03-15T07:49:31.196Z,10.82
2023-03-15T07:51:04.352Z,11.14
2023-03-15T07:52:37.684Z,11.18
2023-03-15T07:54:11.240Z,11.14
2023-03-15T07:55:45.268Z,11.31
2023-03-15T07:57:20.724Z,11.48
2023-03-15T07:58:53.881Z,11.63
2023-03-15T08:00:29.025Z,11.62
2023-03-15T08:02:03.400Z,11.81
2023-03-15T08:03:36.614Z,11.89
2023-03-15T08:05:10.237Z,11.91
2023-03-15T08:06:43.328Z,11.79
2023-03-15T08:08:16.639Z,11.79
2023-03-15T08:09:49.834Z,11.79
2023-03-15T08:11:22.967Z,11.78
2023-03-15T08:12:56.097Z,11.72
2023-03-15T08:14:31.844Z,11.73
2023-03-15T08:16:06.826Z,11.53
2023-03-15T08:17:40.933Z,11.53
2023-03-15T08:19:14.089Z,11.69
2023-03-15T08:20:47.799Z,11.80
2023-03-15T08:22:20.883Z,11.81
2023-03-15T08:23:54.101Z,11.93
2023-03-15T08:25:27.321Z,12.09
2023-03-15T08:27:00.836Z,12.23
2023-03-15T08:28:33.952Z,12.33
2023-03-15T08:30:08.111Z,12.44
2023-03-15T08:31:42.735Z,12.62
2023-03-15T08:33:16.347Z,12.76
2023-03-15T08:34:49.492Z,12.85
2023-03-15T08:36:22.752Z,12.95
2023-03-15T08:37:55.957Z,13.01
2023-03-15T08:39:29.503Z,13.06
2023-03-15T08:41:03.573Z,13.09
2023-03-15T08:42:37.793Z,13.07
2023-03-15T08:44:11.154Z,13.04
2023-03-15T08:46:00.245Z,12.94
2023-03-15T08:47:36.523Z,12.76
2023-03-15T08:49:09.631Z,12.83
2023-03-15T08:50:44.051Z,13.12
2023-03-15T08:52:18.260Z,13.49
2023-03-15T08:53:51.960Z,13.81
2023-03-15T08:55:25.396Z,13.95
2023-03-15T08:56:58.831Z,14.02
2023-03-15T08:58:32.568Z,14.15
2023-03-15T09:00:09.079Z,14.35
2023-03-15T09:01:42.356Z,14.52
2023-03-15T09:03:17.208Z,14.43
2023-03-15T09:04:53.047Z,14.55
2023-03-15T09:06:26.516Z,14.65
2023-03-15T09:08:00.758Z,14.69
2023-03-15T09:09:33.829Z,14.58
2023-03-15T09:11:07.390Z,14.63
2023-03-15T09:12:41.021Z,14.63
2023-03-15T09:14:14.328Z,14.58
2023-03-15T09:15:47.536Z,14.70
2023-03-15T09:17:21.648Z,14.80
2023-03-15T09:18:56.079Z,14.67
2023-03-15T09:20:29.766Z,14.91
2023-03-15T09:22:16.982Z,14.97
2023-03-15T09:23:57.069Z,15.53
2023-03-15T09:25:30.354Z,16.08
2023-03-15T09:27:03.702Z,16.54
2023-03-15T09:28:36.853Z,16.99
2023-03-15T09:30:13.581Z,17.38
2023-03-15T09:31:46.679Z,17.60
2023-03-15T09:33:19.934Z,17.81
2023-03-15T09:34:54.934Z,17.92
2023-03-15T09:36:28.539Z,17.95
2023-03-15T09:38:01.758Z,17.94
2023-03-15T09:39:34.960Z,18.07
2023-03-15T09:41:17.634Z,18.07
2023-03-15T09:43:04.709Z,17.95
2023-03-15T09:44:45.993Z,17.90
2023-03-15T09:46:28.891Z,17.78
2023-03-15T09:48:07.234Z,17.81
2023-03-15T09:49:46.802Z,18.05
2023-03-15T09:51:32.741Z,18.25
2023-03-15T09:53:13.070Z,18.48
2023-03-15T09:54:51.279Z,18.49
2023-03-15T09:56:26.761Z,18.49
2023-03-15T09:58:01.932Z,18.64
2023-03-15T09:59:39.299Z,18.71
2023-03-15T10:01:15.750Z,18.67
2023-03-15T10:02:57.064Z,18.67
2023-03-15T10:04:34.673Z,18.65
2023-03-15T10:06:14.436Z,18.61
2023-03-15T10:07:49.251Z,18.58
2023-03-15T10:09:24.451Z,18.57
2023-03-15T10:11:06.045Z,18.53
2023-03-15T10:12:44.325Z,18.40
2023-03-15T10:14:29.112Z,18.33
2023-03-15T10:16:12.330Z,18.35
2023-03-15T10:17:53.901Z,18.49
2023-03-15T10:19:38.922Z,18.69
2023-03-15T10:21:17.564Z,18.66
2023-03-15T10:23:00.971Z,18.72
2023-03-15T10:24:41.731Z,18.69
2023-03-15T10:26:20.111Z,18.19
2023-03-15T10:27:57.480Z,18.23
2023-03-15T10:29:31.610Z,18.39
2023-03-15T10:31:21.532Z,18.57
2023-03-15T10:33:05.887Z,18.61
2023-03-15T10:34:39.403Z,18.69
2023-03-15T10:36:18.379Z,18.86
2023-03-15T10:37:52.945Z,18.96
2023-03-15T10:39:26.667Z,19.07
2023-03-15T10:41:01.200Z,19.12
2023-03-15T10:42:35.206Z,18.91
2023-03-15T10:44:12.361Z,18.69
2023-03-15T10:45:48.838Z,18.50
2023-03-15T10:47:27.198Z,18.40
2023-03-15T10:49:02.194Z,18.28
2023-03-15T10:50:35.522Z,18.32
2023-03-15T10:52:25.723Z,18.46
2023-03-15T10:54:03.329Z,18.60
2023-03-15T10:55:39.165Z,18.59
2023-03-15T10:57:16.736Z,18.61
2023-03-15T10:59:09.224Z,18.65
2023-03-15T11:00:51.925Z,18.65
2023-03-15T11:02:26.883Z,18.69
2023-03-15T11:04:16.234Z,18.68
2023-03-15T11:05:51.096Z,18.64
2023-03-15T11:07:24.385Z,18.51
2023-03-15T11:09:11.662Z,18.45
2023-03-15T11:10:46.249Z,18.52
2023-03-15T11:12:24.457Z,18.66
2023-03-15T11:14:01.973Z,18.79
2023-03-15T11:15:35.255Z,18.74
2023-03-15T11:17:16.225Z,18.80
2023-03-15T11:18:53.615Z,18.79
2023-03-15T11:20:31.785Z,18.89
2023-03-15T11:22:05.247Z,18.98
2023-03-15T11:23:41.429Z,18.93
2023-03-15T11:25:17.025Z,18.87
2023-03-15T11:26:53.589Z,18.90
2023-03-15T11:28:30.971Z,18.88
2023-03-15T11:30:05.520Z,18.87
2023-03-15T11:31:38.991Z,18.88
2023-03-15T11:33:26.841Z,18.92
2023-03-15T11:35:04.790Z,18.97
2023-03-15T11:36:42.877Z,18.98
2023-03-15T11:38:25.531Z,19.07
2023-03-15T11:40:11.617Z,19.13
2023-03-15T11:41:52.436Z,19.14
2023-03-15T11:43:29.495Z,19.12
2023-03-15T11:45:06.134Z,19.14
2023-03-15T11:46:43.876Z,19.17
2023-03-15T11:48:24.223Z,19.27
2023-03-15T11:49:59.060Z,19.29
2023-03-15T11:51:36.351Z,19.28
2023-03-15T11:53:12.286Z,19.18
2023-03-15T11:54:46.639Z,19.20
2023-03-15T11:56:25.526Z,19.13
2023-03-15T11:58:37.585Z,19.10
2023-03-15T12:00:46.880Z,19.05
2023-03-15T12:02:38.674Z,18.92
2023-03-15T12:04:44.215Z,18.97
2023-03-15T12:06:40.330Z,19.01
2023-03-15T12:08:25.957Z,18.82
2023-03-15T12:10:32.108Z,18.81
2023-03-15T12:12:07.713Z,18.81
2023-03-15T12:13:54.194Z,18.79
2023-03-15T12:15:45.840Z,18.66
2023-03-15T12:17:43.222Z,18.51
2023-03-15T12:19:18.469Z,18.53
2023-03-15T12:20:59.308Z,18.40
2023-03-15T12:22:34.898Z,18.34
2023-03-15T12:24:17.385Z,18.24
2023-03-15T12:25:56.484Z,18.21
2023-03-15T12:27:30.885Z,18.15
2023-03-15T12:29:09.686Z,17.96
2023-03-15T12:30:44.823Z,17.90
2023-03-15T12:32:19.755Z,17.80
2023-03-15T12:33:55.653Z,17.72
2023-03-15T12:35:34.961Z,17.65
2023-03-15T12:37:14.067Z,17.65
2023-03-15T12:39:01.002Z,17.66
2023-03-15T12:40:48.769Z,17.63
2023-03-15T12:43:10.566Z,17.55
2023-03-15T12:44:45.760Z,17.53
2023-03-15T12:46:55.592Z,17.59
2023-03-15T12:48:30.402Z,17.59
2023-03-15T12:50:38.306Z,17.31
2023-03-15T12:52:30.143Z,17.19
2023-03-15T12:54:05.789Z,17.17
2023-03-15T12:55:47.639Z,17.05
2023-03-15T12:57:24.666Z,16.86
2023-03-15T12:59:05.006Z,16.79
2023-03-15T13:00:41.524Z,16.82
2023-03-15T13:02:42.661Z,16.74
2023-03-15T13:04:17.089Z,16.74
2023-03-15T13:06:03.883Z,16.71
2023-03-15T13:07:56.109Z,16.60
2023-03-15T13:09:55.989Z,16.57
2023-03-15T13:11:36.976Z,16.58
2023-03-15T13:13:27.131Z,16.58
2023-03-15T13:15:04.717Z,16.66
2023-03-15T13:16:47.223Z,16.72
2023-03-15T13:18:24.321Z,16.60
2023-03-15T13:20:19.299Z,16.50
2023-03-15T13:22:05.277Z,16.38
2023-03-15T13:23:39.323Z,16.39
2023-03-15T13:25:20.548Z,16.27
2023-03-15T13:26:59.899Z,16.14
2023-03-15T13:28:37.554Z,16.11
2023-03-15T13:30:33.358Z,16.25
2023-03-15T13:32:15.405Z,16.32
2023-03-15T13:33:49.193Z,16.39
2023-03-15T13:35:22.487Z,16.52
2023-03-15T13:36:58.217Z,16.53
2023-03-15T13:38:33.588Z,16.49
2023-03-15T13:40:13.681Z,16.56
2023-03-15T13:41:47.219Z,16.40
2023-03-15T13:43:20.922Z,16.46
2023-03-15T13:45:14.764Z,16.46
2023-03-15T13:46:49.458Z,16.44
2023-03-15T13:48:24.805Z,16.41
2023-03-15T13:49:58.150Z,16.32
2023-03-15T13:51:34.202Z,16.40
2023-03-15T13:53:07.443Z,16.34
2023-03-15T13:54:42.324Z,16.21
2023-03-15T13:56:19.025Z,16.12
2023-03-15T13:57:56.427Z,16.16
2023-03-15T13:59:33.803Z,16.18
2023-03-15T14:01:11.689Z,16.29
2023-03-15T14:02:49.695Z,16.22
2023-03-15T14:04:26.588Z,16.26
2023-03-15T14:05:59.919Z,16.19
2023-03-15T14:07:37.415Z,16.16
2023-03-15T14:09:18.454Z,16.19
2023-03-15T14:11:06.290Z,16.17
2023-03-15T14:12:39.738Z,16.08
2023-03-15T14:14:24.257Z,16.04
2023-03-15T14:15:59.299Z,16.03
2023-03-15T14:17:33.644Z,16.12
2023-03-15T14:19:16.922Z,16.11
2023-03-15T14:21:01.651Z,16.16
2023-03-15T14:22:36.324Z,16.11
2023-03-15T14:24:14.817Z,16.15
2023-03-15T14:25:53.249Z,16.16
2023-03-15T14:27:29.895Z,16.14
2023-03-15T14:29:07.686Z,16.07
2023-03-15T14:30:41.164Z,16.06
2023-03-15T14:32:27.966Z,15.99
2023-03-15T14:34:09.384Z,16.00
2023-03-15T14:35:46.153Z,15.99
2023-03-15T14:37:39.348Z,16.00
2023-03-15T14:39:20.870Z,16.08
2023-03-15T14:40:55.069Z,16.16
2023-03-15T14:42:28.216Z,16.23
2023-03-15T14:44:03.030Z,16.26
2023-03-15T14:45:39.654Z,16.28
2023-03-15T14:47:16.094Z,16.19
2023-03-15T14:48:51.165Z,16.13
2023-03-15T14:50:25.486Z,16.10
2023-03-15T14:52:02.029Z,16.07
2023-03-15T14:53:38.675Z,16.09
2023-03-15T14:55:14.869Z,16.10
2023-03-15T14:56:48.003Z,16.14
2023-03-15T14:58:23.290Z,16.20
2023-03-15T14:59:56.549Z,16.29
2023-03-15T15:01:30.074Z,16.31
2023-03-15T15:03:04.147Z,16.30
2023-03-15T15:04:38.895Z,16.29
2023-03-15T15:06:14.583Z,16.30
2023-03-15T15:07:48.015Z,16.31
2023-03-15T15:09:26.894Z,16.23
2023-03-15T15:11:00.862Z,16.25
2023-03-15T15:12:34.224Z,16.11
2023-03-15T15:14:13.886Z,15.92
2023-03-15T15:15:55.095Z,15.83
2023-03-15T15:17:29.049Z,15.74
2023-03-15T15:19:02.333Z,15.64
2023-03-15T15:20:35.466Z,15.57
2023-03-15T15:22:10.312Z,15.57
2023-03-15T15:23:57.351Z,15.57
2023-03-15T15:25:33.930Z,15.41
2023-03-15T15:27:07.392Z,15.42
2023-03-15T15:28:42.397Z,15.35
2023-03-15T15:30:17.861Z,15.25
2023-03-15T15:31:51.239Z,15.28
2023-03-15T15:33:24.518Z,15.28
2023-03-15T15:34:59.176Z,15.28
2023-03-15T15:36:35.200Z,15.24
2023-03-15T15:38:12.292Z,15.22
2023-03-15T15:39:45.435Z,15.11
2023-03-15T15:41:24.783Z,14.98
2023-03-15T15:42:58.482Z,14.88
2023-03-15T15:44:31.783Z,14.93
2023-03-15T15:46:05.165Z,14.92
2023-03-15T15:47:38.260Z,14.90
2023-03-15T15:49:11.528Z,14.86
2023-03-15T15:50:45.126Z,14.81
2023-03-15T15:52:18.671Z,14.84
2023-03-15T15:53:52.586Z,14.79
2023-03-15T15:55:29.836Z,14.76
2023-03-15T15:57:05.182Z,14.71
2023-03-15T15:58:38.403Z,14.69
2023-03-15T16:00:17.967Z,14.61
2023-03-15T16:02:06.585Z,14.62
2023-03-15T16:03:39.950Z,14.62
2023-03-15T16:05:14.903Z,14.62
2023-03-15T16:06:53.191Z,14.56
2023-03-15T16:08:26.974Z,14.60
2023-03-15T16:10:01.258Z,14.51
2023-03-15T16:11:34.889Z,14.44
2023-03-15T16:13:12.543Z,14.40
2023-03-15T16:14:45.782Z,14.37
2023-03-15T16:16:19.457Z,14.35
2023-03-15T16:17:52.669Z,14.32
2023-03-15T16:19:25.812Z,14.22
2023-03-15T16:21:00.241Z,14.20
2023-03-15T16:22:33.565Z,14.17
2023-03-15T16:24:12.724Z,14.16
2023-03-15T16:25:48.913Z,14.14
2023-03-15T16:27:26.019Z,14.09
2023-03-15T16:29:00.543Z,14.02
2023-03-15T16:30:34.611Z,14.05
2023-03-15T16:32:19.075Z,14.00
2023-03-15T16:33:55.632Z,13.97
2023-03-15T16:35:33.954Z,13.95
2023-03-15T16:37:07.242Z,13.90
2023-03-15T16:38:40.451Z,13.86
2023-03-15T16:40:21.862Z,13.90
2023-03-15T16:41:55.103Z,13.88
2023-03-15T16:43:27.569Z,13.88
2023-03-15T16:45:02.395Z,13.80
2023-03-15T16:46:35.970Z,13.79
2023-03-15T16:48:09.285Z,13.77
2023-03-15T16:49:42.566Z,13.80
2023-03-15T16:51:17.123Z,13.87
2023-03-15T16:52:54.258Z,13.88
2023-03-15T16:54:40.553Z,13.90
2023-03-15T16:56:16.436Z,13.95
2023-03-15T16:57:49.880Z,13.96
2023-03-15T16:59:23.130Z,13.98
2023-03-15T17:00:57.890Z,13.99
2023-03-15T17:02:31.281Z,14.00
2023-03-15T17:04:05.470Z,13.99
2023-03-15T17:05:38.808Z,13.91
2023-03-15T17:07:14.523Z,13.92
2023-03-15T17:08:48.122Z,13.88
2023-03-15T17:10:24.541Z,13.84
2023-03-15T17:11:58.033Z,13.78
2023-03-15T17:13:33.273Z,13.62
2023-03-15T17:15:08.196Z,13.75
2023-03-15T17:16:44.405Z,13.76
2023-03-15T17:18:19.990Z,13.68
2023-03-15T17:19:54.383Z,13.80
2023-03-15T17:21:29.001Z,13.77
2023-03-15T17:23:04.877Z,13.80
2023-03-15T17:24:38.377Z,13.79
2023-03-15T17:26:13.803Z,13.79
2023-03-15T17:27:49.306Z,13.82
2023-03-15T17:29:22.906Z,13.81
2023-03-15T17:31:13.994Z,13.80
2023-03-15T17:32:51.259Z,13.77
2023-03-15T17:34:24.538Z,13.75
2023-03-15T17:35:58.719Z,13.65
2023-03-15T17:37:35.417Z,13.67
2023-03-15T17:39:12.885Z,13.65
2023-03-15T17:40:46.662Z,13.56
2023-03-15T17:42:20.034Z,13.56
2023-03-15T17:43:53.611Z,13.57
2023-03-15T17:45:28.779Z,13.58
2023-03-15T17:47:04.041Z,13.58
2023-03-15T17:48:40.301Z,13.55
2023-03-15T17:50:13.650Z,13.49
2023-03-15T17:51:47.022Z,13.49
2023-03-15T17:53:21.796Z,13.41
2023-03-15T17:54:54.904Z,13.36
2023-03-15T17:56:28.956Z,13.30
2023-03-15T17:58:02.268Z,13.33
2023-03-15T17:59:35.721Z,13.29
2023-03-15T18:01:16.609Z,13.26
2023-03-15T18:02:55.728Z,13.21
2023-03-15T18:04:31.062Z,13.18
2023-03-15T18:06:05.461Z,13.17
2023-03-15T18:07:43.541Z,13.12
2023-03-15T18:09:19.393Z,13.10
2023-03-15T18:10:54.347Z,13.09
2023-03-15T18:12:28.095Z,13.01
2023-03-15T18:14:01.503Z,12.98
2023-03-15T18:15:34.733Z,12.93
2023-03-15T18:17:07.826Z,12.89
2023-03-15T18:18:41.602Z,12.91
2023-03-15T18:20:16.973Z,12.88
2023-03-15T18:21:50.173Z,12.90
2023-03-15T18:23:23.471Z,12.91
2023-03-15T18:24:56.621Z,12.88
2023-03-15T18:26:30.201Z,12.85
2023-03-15T18:28:03.693Z,12.81
2023-03-15T18:29:38.766Z,12.80
2023-03-15T18:31:13.825Z,12.72
2023-03-15T18:32:47.860Z,12.73
2023-03-15T18:34:22.052Z,12.62
2023-03-15T18:35:56.698Z,12.64
2023-03-15T18:37:30.095Z,12.60
2023-03-15T18:39:06.593Z,12.60
2023-03-15T18:40:40.354Z,12.57
2023-03-15T18:42:13.660Z,12.57
2023-03-15T18:43:49.905Z,12.58
2023-03-15T18:45:25.199Z,12.56
2023-03-15T18:46:58.424Z,12.53
2023-03-15T18:48:40.454Z,12.54
2023-03-15T18:50:15.359Z,12.54
2023-03-15T18:51:50.112Z,12.54
2023-03-15T18:53:24.199Z,12.53
2023-03-15T18:54:57.367Z,12.50
2023-03-15T18:56:34.503Z,12.52
2023-03-15T18:58:09.154Z,12.53
2023-03-15T18:59:42.586Z,12.50
2023-03-15T19:01:16.099Z,12.48
2023-03-15T19:02:49.362Z,12.49
2023-03-15T19:04:22.825Z,12.48
2023-03-15T19:05:56.614Z,12.47
2023-03-15T19:07:31.191Z,12.39
2023-03-15T19:09:05.578Z,12.44
2023-03-15T19:10:38.789Z,12.46
2023-03-15T19:12:12.310Z,12.44
2023-03-15T19:13:50.836Z,12.47
2023-03-15T19:15:24.549Z,12.48
2023-03-15T19:16:58.172Z,12.32
2023-03-15T19:18:32.409Z,12.30
2023-03-15T19:20:06.944Z,12.34
2023-03-15T19:21:40.116Z,12.34
2023-03-15T19:23:13.845Z,12.39
2023-03-15T19:24:47.032Z,12.42
2023-03-15T19:26:20.366Z,12.39
2023-03-15T19:27:53.516Z,12.43
2023-03-15T19:29:26.785Z,12.43
2023-03-15T19:31:00.328Z,12.45
2023-03-15T19:32:34.394Z,12.48
2023-03-15T19:34:07.989Z,12.47
2023-03-15T19:35:41.290Z,12.53
2023-03-15T19:37:14.798Z,12.50
2023-03-15T19:38:49.377Z,12.46
2023-03-15T19:40:22.819Z,12.49
2023-03-15T19:41:56.177Z,12.49
2023-03-15T19:43:29.434Z,12.51
2023-03-15T19:45:03.039Z,12.55
2023-03-15T19:46:36.244Z,12.54
2023-03-15T19:48:09.548Z,12.54
2023-03-15T19:49:42.882Z,12.58
2023-03-15T19:51:16.494Z,12.56
2023-03-15T19:52:50.006Z,12.59
2023-03-15T19:54:24.877Z,12.57
2023-03-15T19:55:58.375Z,12.59
2023-03-15T19:57:31.580Z,12.58
2023-03-15T19:59:05.416Z,12.59
2023-03-15T20:00:39.079Z,12.59
2023-03-15T20:02:13.651Z,12.49
2023-03-15T20:03:46.983Z,12.53
2023-03-15T20:05:21.840Z,12.54
2023-03-15T20:06:55.057Z,12.53
2023-03-15T20:08:28.577Z,12.53
2023-03-15T20:10:06.079Z,12.53
2023-03-15T20:11:39.340Z,12.53
2023-03-15T20:13:12.950Z,12.53
2023-03-15T20:14:46.071Z,12.52
2023-03-15T20:16:19.558Z,12.53
2023-03-15T20:17:53.081Z,12.52
2023-03-15T20:19:26.587Z,12.53
2023-03-15T20:21:00.027Z,12.53
2023-03-15T20:22:33.568Z,12.54
2023-03-15T20:24:08.847Z,12.48
2023-03-15T20:25:43.528Z,12.44
2023-03-15T20:27:16.766Z,12.45
2023-03-15T20:28:50.406Z,12.45
2023-03-15T20:30:24.097Z,12.39
2023-03-15T20:31:57.551Z,12.41
2023-03-15T20:33:31.236Z,12.42
2023-03-15T20:35:09.068Z,12.41
2023-03-15T20:36:42.354Z,12.43
2023-03-15T20:38:15.645Z,12.44
2023-03-15T20:39:49.645Z,12.48
2023-03-15T20:41:24.162Z,12.48
2023-03-15T20:42:57.246Z,12.45
2023-03-15T20:44:30.497Z,12.43
2023-03-15T20:46:04.975Z,12.34
2023-03-15T20:47:38.981Z,12.32
2023-03-15T20:49:12.170Z,12.31
2023-03-15T20:50:48.191Z,12.30
2023-03-15T20:52:21.446Z,12.28
2023-03-15T20:53:54.912Z,12.26
2023-03-15T20:55:28.111Z,12.24
2023-03-15T20:57:03.434Z,12.26
2023-03-15T20:58:36.731Z,12.23
2023-03-15T21:00:12.634Z,12.24
2023-03-15T21:01:47.332Z,12.23
2023-03-15T21:03:20.690Z,12.24
2023-03-15T21:04:52.867Z,12.27
2023-03-15T21:06:26.150Z,12.28
2023-03-15T21:07:59.355Z,12.29
2023-03-15T21:09:32.949Z,12.30
2023-03-15T21:11:07.177Z,12.31
2023-03-15T21:12:41.770Z,12.33